Ridgecrest, CA (93555)

10:39 AM PDT on September 03, 2015 (GMT -0700)
APRSWXNET | | Change Station
CLOSE
Current Station
Personal Weather Station
Location: Ridgecrest, CA
Elevation: 2391 ft
Nearby Weather Stations

Elev 2391 ft 35.60 °N, 117.70 °W | Updated 33 minutes ago

Clear
Clear
82 °F
Feels Like 80 °F
N
11
Wind Variable Wind from South
Gusts 17.0 mph

Today
High -- | Low -- °F
--% Chance of Precip.
Yesterday
High -- | Low -- °F
Precip. -- in
6:24 AM 7:15 PM
Waning Gibbous, 68% visible
Pressure 29.82 in
Visibility 10.0 miles
Clouds Few 28000 ft
Heat Index 80 °F
Dew Point 30 °F
Humidity 15%
Rainfall in
Snow Depth Not available.
UV 5 out of 12
Pollen 8.80 out of 12
Air Quality Not available.
Flu Activity Not available.
METAR KNID 031656Z AUTO 00000KT 10SM FEW280 27/03 A2988 RMK AO2 SLP096 T02720033 $
Pressure 29.82 in
Visibility 10.0 miles
Clouds Few 28000 ft
Heat Index 80 °F
Dew Point 30 °F
Humidity 15%
Rainfall in
Snow Depth Not available.
UV 5 out of 12
Pollen 8.80 out of 12
Air Quality Not available.
Flu Activity Not available.
METAR KNID 031656Z AUTO 00000KT 10SM FEW280 27/03 A2988 RMK AO2 SLP096 T02720033 $

10-Day Weather Forecast

×

Almanac

Astronomy

Sep. 03, 2015 Rise Set
Actual Time
Civil Twilight
Nautical Twilight
Astronomical Twilight
Moon
Length of Visible Light
Length of Day
Tomorrow will be .
, % of the Moon is Illuminated

Today's Extremes

State Highs State Lows

Community

WunderPhotos

Upload Photos

1,851,991 photos uploaded!

WunderBlogs® & News

Nearby

Air Quality

  Air Quality AQ Index Pollutant
Not available.

Snow Depth

Station Depth Elevation

Earthquake Activity

City Distance Mag. Time & Date
Minimum magnitude displayed is 2.5.

Coastal Water Temperatures

Place Temperature

Stations

Nearby Weather Stations

Station Location Temp. Windchill Dew Point Humidity Wind Precip. Elev Updated Type